sensor_id;sensor_type;location;lat;lon;timestamp;P1;durP1;ratioP1;P2;durP2;ratioP2
20758;SDS011;10539;53.686;9.158;2022-09-16T00:00:18;8.80;;;1.53;;
20758;SDS011;10539;53.686;9.158;2022-09-16T00:02:44;6.33;;;1.00;;
20758;SDS011;10539;53.686;9.158;2022-09-16T00:05:10;9.43;;;1.83;;
20758;SDS011;10539;53.686;9.158;2022-09-16T00:07:36;6.23;;;1.40;;
20758;SDS011;10539;53.686;9.158;2022-09-16T00:10:02;8.87;;;1.07;;
20758;SDS011;10539;53.686;9.158;2022-09-16T00:12:28;7.33;;;1.03;;
20758;SDS011;10539;53.686;9.158;2022-09-16T00:14:54;7.73;;;0.93;;
20758;SDS011;10539;53.686;9.158;2022-09-16T00:17:20;5.90;;;1.40;;
20758;SDS011;10539;53.686;9.158;2022-09-16T00:19:47;6.90;;;0.93;;
20758;SDS011;10539;53.686;9.158;2022-09-16T00:22:14;3.73;;;0.97;;
20758;SDS011;10539;53.686;9.158;2022-09-16T00:24:40;4.77;;;0.97;;
20758;SDS011;10539;53.686;9.158;2022-09-16T00:27:06;6.97;;;1.10;;
20758;SDS011;10539;53.686;9.158;2022-09-16T00:29:33;5.50;;;0.90;;
20758;SDS011;10539;53.686;9.158;2022-09-16T00:31:59;5.27;;;0.80;;
20758;SDS011;10539;53.686;9.158;2022-09-16T00:34:25;7.27;;;1.10;;
20758;SDS011;10539;53.686;9.158;2022-09-16T00:36:50;5.33;;;0.87;;
20758;SDS011;10539;53.686;9.158;2022-09-16T00:39:16;7.17;;;1.63;;
20758;SDS011;10539;53.686;9.158;2022-09-16T00:41:42;5.80;;;1.07;;
20758;SDS011;10539;53.686;9.158;2022-09-16T00:47:12;6.90;;;1.00;;
20758;SDS011;10539;53.686;9.158;2022-09-16T00:49:40;1.90;;;1.00;;
20758;SDS011;10539;53.686;9.158;2022-09-16T00:52:07;5.67;;;1.10;;
20758;SDS011;10539;53.686;9.158;2022-09-16T00:54:34;5.70;;;1.00;;
20758;SDS011;10539;53.686;9.158;2022-09-16T00:57:02;5.07;;;0.90;;
20758;SDS011;10539;53.686;9.158;2022-09-16T00:59:31;8.67;;;1.20;;
20758;SDS011;10539;53.686;9.158;2022-09-16T01:02:02;5.73;;;1.10;;
20758;SDS011;10539;53.686;9.158;2022-09-16T01:07:36;5.90;;;1.20;;
20758;SDS011;10539;53.686;9.158;2022-09-16T01:10:08;6.00;;;1.03;;
20758;SDS011;10539;53.686;9.158;2022-09-16T01:12:34;6.40;;;1.17;;
20758;SDS011;10539;53.686;9.158;2022-09-16T01:15:01;8.83;;;1.40;;
20758;SDS011;10539;53.686;9.158;2022-09-16T01:42:38;8.07;;;1.23;;
20758;SDS011;10539;53.686;9.158;2022-09-16T01:51:18;9.47;;;1.30;;
20758;SDS011;10539;53.686;9.158;2022-09-16T01:53:31;3.20;;;0.90;;
20758;SDS011;10539;53.686;9.158;2022-09-16T01:56:19;7.93;;;1.20;;
20758;SDS011;10539;53.686;9.158;2022-09-16T02:04:04;3.87;;;0.80;;
20758;SDS011;10539;53.686;9.158;2022-09-16T02:06:37;5.23;;;0.80;;
20758;SDS011;10539;53.686;9.158;2022-09-16T02:09:06;6.40;;;0.80;;
20758;SDS011;10539;53.686;9.158;2022-09-16T02:11:37;11.10;;;0.80;;
20758;SDS011;10539;53.686;9.158;2022-09-16T02:14:18;5.80;;;0.80;;
20758;SDS011;10539;53.686;9.158;2022-09-16T02:17:09;6.20;;;1.10;;
20758;SDS011;10539;53.686;9.158;2022-09-16T02:19:41;3.03;;;0.60;;
20758;SDS011;10539;53.686;9.158;2022-09-16T02:22:15;6.53;;;1.10;;
20758;SDS011;10539;53.686;9.158;2022-09-16T02:24:45;11.47;;;1.00;;
20758;SDS011;10539;53.686;9.158;2022-09-16T02:27:14;1.90;;;0.97;;
20758;SDS011;10539;53.686;9.158;2022-09-16T02:29:43;6.93;;;1.10;;
20758;SDS011;10539;53.686;9.158;2022-09-16T02:32:20;10.90;;;1.30;;
20758;SDS011;10539;53.686;9.158;2022-09-16T02:34:49;6.13;;;1.27;;
20758;SDS011;10539;53.686;9.158;2022-09-16T02:37:17;8.03;;;1.50;;
20758;SDS011;10539;53.686;9.158;2022-09-16T02:39:45;7.47;;;1.13;;
20758;SDS011;10539;53.686;9.158;2022-09-16T02:42:14;5.33;;;1.17;;
20758;SDS011;10539;53.686;9.158;2022-09-16T02:44:40;7.93;;;1.40;;
20758;SDS011;10539;53.686;9.158;2022-09-16T02:49:38;4.93;;;1.20;;
20758;SDS011;10539;53.686;9.158;2022-09-16T02:54:52;5.77;;;1.40;;
20758;SDS011;10539;53.686;9.158;2022-09-16T02:57:25;4.33;;;1.30;;
20758;SDS011;10539;53.686;9.158;2022-09-16T02:59:51;5.27;;;1.10;;
20758;SDS011;10539;53.686;9.158;2022-09-16T03:02:17;7.33;;;1.80;;
20758;SDS011;10539;53.686;9.158;2022-09-16T03:04:43;6.67;;;1.37;;
20758;SDS011;10539;53.686;9.158;2022-09-16T03:07:09;6.53;;;1.40;;
20758;SDS011;10539;53.686;9.158;2022-09-16T03:09:37;7.30;;;1.47;;
20758;SDS011;10539;53.686;9.158;2022-09-16T03:15:06;5.03;;;1.00;;
20758;SDS011;10539;53.686;9.158;2022-09-16T03:20:28;6.00;;;0.93;;
20758;SDS011;10539;53.686;9.158;2022-09-16T03:23:11;4.67;;;0.83;;
20758;SDS011;10539;53.686;9.158;2022-09-16T03:25:58;9.53;;;1.10;;
20758;SDS011;10539;53.686;9.158;2022-09-16T03:28:47;7.67;;;1.07;;
20758;SDS011;10539;53.686;9.158;2022-09-16T03:31:47;4.53;;;0.93;;
20758;SDS011;10539;53.686;9.158;2022-09-16T03:37:05;8.30;;;1.00;;
20758;SDS011;10539;53.686;9.158;2022-09-16T03:39:32;6.90;;;0.87;;
20758;SDS011;10539;53.686;9.158;2022-09-16T03:42:02;7.97;;;1.10;;
20758;SDS011;10539;53.686;9.158;2022-09-16T03:44:35;8.73;;;1.17;;
20758;SDS011;10539;53.686;9.158;2022-09-16T03:47:03;7.43;;;0.90;;
20758;SDS011;10539;53.686;9.158;2022-09-16T03:49:29;6.53;;;0.93;;
20758;SDS011;10539;53.686;9.158;2022-09-16T03:51:55;6.40;;;0.90;;
20758;SDS011;10539;53.686;9.158;2022-09-16T03:54:21;6.80;;;0.93;;
20758;SDS011;10539;53.686;9.158;2022-09-16T03:56:47;10.00;;;1.33;;
20758;SDS011;10539;53.686;9.158;2022-09-16T03:59:12;9.60;;;1.33;;
20758;SDS011;10539;53.686;9.158;2022-09-16T04:01:38;9.90;;;0.90;;
20758;SDS011;10539;53.686;9.158;2022-09-16T04:04:04;7.87;;;1.00;;
20758;SDS011;10539;53.686;9.158;2022-09-16T04:06:29;8.60;;;1.10;;
20758;SDS011;10539;53.686;9.158;2022-09-16T04:08:55;8.83;;;1.30;;
20758;SDS011;10539;53.686;9.158;2022-09-16T04:11:25;10.27;;;1.27;;
20758;SDS011;10539;53.686;9.158;2022-09-16T04:13:53;7.13;;;1.00;;
20758;SDS011;10539;53.686;9.158;2022-09-16T04:16:20;10.03;;;1.40;;
20758;SDS011;10539;53.686;9.158;2022-09-16T04:18:46;7.70;;;1.13;;
20758;SDS011;10539;53.686;9.158;2022-09-16T04:21:12;7.57;;;1.30;;
20758;SDS011;10539;53.686;9.158;2022-09-16T04:23:38;10.33;;;1.73;;
20758;SDS011;10539;53.686;9.158;2022-09-16T04:26:04;5.40;;;1.33;;
20758;SDS011;10539;53.686;9.158;2022-09-16T04:28:30;7.27;;;1.50;;
20758;SDS011;10539;53.686;9.158;2022-09-16T04:31:03;3.43;;;1.10;;
20758;SDS011;10539;53.686;9.158;2022-09-16T04:33:34;4.90;;;1.43;;
20758;SDS011;10539;53.686;9.158;2022-09-16T04:36:01;6.07;;;1.53;;
20758;SDS011;10539;53.686;9.158;2022-09-16T04:38:30;5.10;;;1.10;;
20758;SDS011;10539;53.686;9.158;2022-09-16T04:41:00;6.87;;;1.23;;
20758;SDS011;10539;53.686;9.158;2022-09-16T04:43:33;4.30;;;1.00;;
20758;SDS011;10539;53.686;9.158;2022-09-16T04:45:59;4.50;;;0.93;;
20758;SDS011;10539;53.686;9.158;2022-09-16T04:48:25;7.17;;;0.90;;
20758;SDS011;10539;53.686;9.158;2022-09-16T04:50:52;7.93;;;1.10;;
20758;SDS011;10539;53.686;9.158;2022-09-16T04:53:18;6.37;;;1.20;;
20758;SDS011;10539;53.686;9.158;2022-09-16T04:55:44;6.27;;;1.00;;
20758;SDS011;10539;53.686;9.158;2022-09-16T04:58:11;5.63;;;0.80;;
20758;SDS011;10539;53.686;9.158;2022-09-16T05:00:36;9.10;;;1.57;;
20758;SDS011;10539;53.686;9.158;2022-09-16T05:03:02;8.60;;;1.13;;
20758;SDS011;10539;53.686;9.158;2022-09-16T05:05:28;5.83;;;1.07;;
20758;SDS011;10539;53.686;9.158;2022-09-16T05:07:54;4.93;;;0.83;;
20758;SDS011;10539;53.686;9.158;2022-09-16T05:10:19;11.30;;;1.40;;
20758;SDS011;10539;53.686;9.158;2022-09-16T05:12:49;10.37;;;1.20;;
20758;SDS011;10539;53.686;9.158;2022-09-16T05:15:16;7.43;;;1.03;;
20758;SDS011;10539;53.686;9.158;2022-09-16T05:17:41;7.97;;;0.90;;
20758;SDS011;10539;53.686;9.158;2022-09-16T05:20:07;7.70;;;1.20;;
20758;SDS011;10539;53.686;9.158;2022-09-16T05:22:33;4.77;;;0.90;;
20758;SDS011;10539;53.686;9.158;2022-09-16T05:24:59;6.17;;;1.07;;
20758;SDS011;10539;53.686;9.158;2022-09-16T05:27:24;9.77;;;1.40;;
20758;SDS011;10539;53.686;9.158;2022-09-16T05:29:53;8.90;;;1.10;;
20758;SDS011;10539;53.686;9.158;2022-09-16T05:32:19;4.23;;;1.00;;
20758;SDS011;10539;53.686;9.158;2022-09-16T05:34:45;3.80;;;1.00;;
20758;SDS011;10539;53.686;9.158;2022-09-16T05:37:10;4.60;;;1.13;;
20758;SDS011;10539;53.686;9.158;2022-09-16T05:39:36;9.33;;;1.10;;
20758;SDS011;10539;53.686;9.158;2022-09-16T05:42:01;8.33;;;1.07;;
20758;SDS011;10539;53.686;9.158;2022-09-16T05:44:28;8.63;;;1.33;;
20758;SDS011;10539;53.686;9.158;2022-09-16T05:46:55;5.70;;;1.47;;
20758;SDS011;10539;53.686;9.158;2022-09-16T05:49:21;6.07;;;1.33;;
20758;SDS011;10539;53.686;9.158;2022-09-16T05:51:48;3.60;;;1.10;;
20758;SDS011;10539;53.686;9.158;2022-09-16T05:54:14;10.03;;;1.50;;
20758;SDS011;10539;53.686;9.158;2022-09-16T05:56:42;7.70;;;1.27;;
20758;SDS011;10539;53.686;9.158;2022-09-16T05:59:08;8.27;;;1.40;;
20758;SDS011;10539;53.686;9.158;2022-09-16T06:01:35;8.17;;;1.20;;
20758;SDS011;10539;53.686;9.158;2022-09-16T06:04:02;6.10;;;1.30;;
20758;SDS011;10539;53.686;9.158;2022-09-16T06:06:31;12.77;;;3.47;;
20758;SDS011;10539;53.686;9.158;2022-09-16T06:08:59;8.27;;;1.20;;
20758;SDS011;10539;53.686;9.158;2022-09-16T06:11:34;10.80;;;1.50;;
20758;SDS011;10539;53.686;9.158;2022-09-16T06:14:02;12.23;;;1.60;;
20758;SDS011;10539;53.686;9.158;2022-09-16T06:16:30;8.20;;;1.23;;
20758;SDS011;10539;53.686;9.158;2022-09-16T06:18:57;4.67;;;1.70;;
20758;SDS011;10539;53.686;9.158;2022-09-16T06:21:27;5.57;;;1.20;;
20758;SDS011;10539;53.686;9.158;2022-09-16T06:23:53;6.00;;;1.10;;
20758;SDS011;10539;53.686;9.158;2022-09-16T06:26:20;7.93;;;1.40;;
20758;SDS011;10539;53.686;9.158;2022-09-16T06:28:48;6.13;;;1.17;;
20758;SDS011;10539;53.686;9.158;2022-09-16T06:31:16;7.20;;;1.30;;
20758;SDS011;10539;53.686;9.158;2022-09-16T06:33:47;12.50;;;1.40;;
20758;SDS011;10539;53.686;9.158;2022-09-16T06:36:15;8.27;;;1.07;;
20758;SDS011;10539;53.686;9.158;2022-09-16T06:38:43;6.80;;;1.20;;
20758;SDS011;10539;53.686;9.158;2022-09-16T06:41:10;5.73;;;1.93;;
20758;SDS011;10539;53.686;9.158;2022-09-16T06:43:37;4.50;;;1.10;;
20758;SDS011;10539;53.686;9.158;2022-09-16T06:46:13;11.10;;;3.47;;
20758;SDS011;10539;53.686;9.158;2022-09-16T06:48:40;4.83;;;0.97;;
20758;SDS011;10539;53.686;9.158;2022-09-16T06:51:11;5.07;;;0.80;;
20758;SDS011;10539;53.686;9.158;2022-09-16T06:53:39;7.67;;;1.03;;
20758;SDS011;10539;53.686;9.158;2022-09-16T06:56:06;11.57;;;1.83;;
20758;SDS011;10539;53.686;9.158;2022-09-16T06:58:35;8.93;;;0.90;;
20758;SDS011;10539;53.686;9.158;2022-09-16T07:01:08;9.47;;;1.20;;
20758;SDS011;10539;53.686;9.158;2022-09-16T07:03:38;8.57;;;1.80;;
20758;SDS011;10539;53.686;9.158;2022-09-16T07:06:06;10.83;;;1.40;;
20758;SDS011;10539;53.686;9.158;2022-09-16T07:08:33;4.43;;;0.93;;
20758;SDS011;10539;53.686;9.158;2022-09-16T07:11:00;9.30;;;1.43;;
20758;SDS011;10539;53.686;9.158;2022-09-16T07:13:28;11.10;;;1.40;;
20758;SDS011;10539;53.686;9.158;2022-09-16T07:15:54;14.53;;;1.63;;
20758;SDS011;10539;53.686;9.158;2022-09-16T07:18:30;6.50;;;0.87;;
20758;SDS011;10539;53.686;9.158;2022-09-16T07:21:06;6.43;;;1.00;;
20758;SDS011;10539;53.686;9.158;2022-09-16T07:23:42;5.53;;;1.00;;
20758;SDS011;10539;53.686;9.158;2022-09-16T07:28:38;6.70;;;1.10;;
20758;SDS011;10539;53.686;9.158;2022-09-16T07:31:15;9.03;;;1.07;;
20758;SDS011;10539;53.686;9.158;2022-09-16T07:33:44;10.17;;;1.40;;
20758;SDS011;10539;53.686;9.158;2022-09-16T07:36:13;8.03;;;1.30;;
20758;SDS011;10539;53.686;9.158;2022-09-16T07:38:41;5.40;;;1.20;;
20758;SDS011;10539;53.686;9.158;2022-09-16T07:41:10;7.87;;;1.17;;
20758;SDS011;10539;53.686;9.158;2022-09-16T07:43:39;4.57;;;0.93;;
20758;SDS011;10539;53.686;9.158;2022-09-16T07:46:06;8.43;;;1.90;;
20758;SDS011;10539;53.686;9.158;2022-09-16T07:48:33;9.53;;;1.20;;
20758;SDS011;10539;53.686;9.158;2022-09-16T07:50:59;6.30;;;1.07;;
20758;SDS011;10539;53.686;9.158;2022-09-16T07:53:36;10.90;;;1.83;;
20758;SDS011;10539;53.686;9.158;2022-09-16T07:56:04;7.57;;;1.30;;
20758;SDS011;10539;53.686;9.158;2022-09-16T07:58:31;6.13;;;1.17;;
20758;SDS011;10539;53.686;9.158;2022-09-16T08:00:58;7.83;;;1.13;;
20758;SDS011;10539;53.686;9.158;2022-09-16T08:03:24;6.67;;;1.40;;
20758;SDS011;10539;53.686;9.158;2022-09-16T08:05:49;13.27;;;1.07;;
20758;SDS011;10539;53.686;9.158;2022-09-16T08:08:15;5.57;;;1.03;;
20758;SDS011;10539;53.686;9.158;2022-09-16T08:10:41;8.33;;;1.17;;
20758;SDS011;10539;53.686;9.158;2022-09-16T08:13:07;10.47;;;1.40;;
20758;SDS011;10539;53.686;9.158;2022-09-16T08:15:34;8.77;;;1.00;;
20758;SDS011;10539;53.686;9.158;2022-09-16T08:18:00;7.23;;;0.97;;
20758;SDS011;10539;53.686;9.158;2022-09-16T08:20:26;6.70;;;1.10;;
20758;SDS011;10539;53.686;9.158;2022-09-16T08:22:52;6.97;;;1.07;;
20758;SDS011;10539;53.686;9.158;2022-09-16T08:25:18;11.33;;;1.27;;
20758;SDS011;10539;53.686;9.158;2022-09-16T08:27:43;8.73;;;1.10;;
20758;SDS011;10539;53.686;9.158;2022-09-16T08:30:09;14.20;;;1.30;;
20758;SDS011;10539;53.686;9.158;2022-09-16T08:32:35;10.80;;;1.83;;
20758;SDS011;10539;53.686;9.158;2022-09-16T08:35:01;9.63;;;2.03;;
20758;SDS011;10539;53.686;9.158;2022-09-16T08:37:27;8.13;;;1.17;;
20758;SDS011;10539;53.686;9.158;2022-09-16T08:39:53;10.50;;;1.77;;
20758;SDS011;10539;53.686;9.158;2022-09-16T08:42:29;5.30;;;1.40;;
20758;SDS011;10539;53.686;9.158;2022-09-16T08:47:45;10.37;;;1.70;;
20758;SDS011;10539;53.686;9.158;2022-09-16T08:50:28;8.80;;;1.43;;
20758;SDS011;10539;53.686;9.158;2022-09-16T08:52:58;12.40;;;1.47;;
20758;SDS011;10539;53.686;9.158;2022-09-16T08:55:31;10.70;;;1.40;;
20758;SDS011;10539;53.686;9.158;2022-09-16T09:00:41;6.13;;;0.90;;
20758;SDS011;10539;53.686;9.158;2022-09-16T09:05:57;9.53;;;1.40;;
20758;SDS011;10539;53.686;9.158;2022-09-16T09:08:31;14.33;;;1.70;;
20758;SDS011;10539;53.686;9.158;2022-09-16T09:13:39;5.43;;;1.13;;
20758;SDS011;10539;53.686;9.158;2022-09-16T09:19:35;8.00;;;1.33;;
20758;SDS011;10539;53.686;9.158;2022-09-16T09:28:02;12.37;;;1.87;;
20758;SDS011;10539;53.686;9.158;2022-09-16T09:30:35;9.60;;;1.20;;
20758;SDS011;10539;53.686;9.158;2022-09-16T09:33:17;10.73;;;1.10;;
20758;SDS011;10539;53.686;9.158;2022-09-16T09:36:23;4.70;;;1.07;;
20758;SDS011;10539;53.686;9.158;2022-09-16T09:41:44;6.07;;;1.10;;
20758;SDS011;10539;53.686;9.158;2022-09-16T09:44:53;6.27;;;1.03;;
20758;SDS011;10539;53.686;9.158;2022-09-16T09:47:32;7.53;;;1.10;;
20758;SDS011;10539;53.686;9.158;2022-09-16T09:50:18;5.67;;;0.97;;
20758;SDS011;10539;53.686;9.158;2022-09-16T09:55:30;8.50;;;1.20;;
20758;SDS011;10539;53.686;9.158;2022-09-16T09:58:03;7.30;;;0.73;;
20758;SDS011;10539;53.686;9.158;2022-09-16T10:00:39;6.90;;;1.23;;
20758;SDS011;10539;53.686;9.158;2022-09-16T10:03:16;7.57;;;1.20;;
20758;SDS011;10539;53.686;9.158;2022-09-16T10:05:43;5.67;;;0.90;;
20758;SDS011;10539;53.686;9.158;2022-09-16T10:10:49;6.23;;;0.90;;
20758;SDS011;10539;53.686;9.158;2022-09-16T10:13:21;13.60;;;1.30;;
20758;SDS011;10539;53.686;9.158;2022-09-16T10:15:51;6.60;;;1.00;;
20758;SDS011;10539;53.686;9.158;2022-09-16T10:18:26;6.20;;;1.23;;
20758;SDS011;10539;53.686;9.158;2022-09-16T10:21:05;4.17;;;0.80;;
20758;SDS011;10539;53.686;9.158;2022-09-16T10:23:35;7.23;;;1.30;;
20758;SDS011;10539;53.686;9.158;2022-09-16T10:26:04;13.77;;;1.80;;
20758;SDS011;10539;53.686;9.158;2022-09-16T10:31:44;15.23;;;1.50;;
20758;SDS011;10539;53.686;9.158;2022-09-16T10:39:32;3.83;;;1.00;;
20758;SDS011;10539;53.686;9.158;2022-09-16T10:41:58;5.93;;;1.07;;
20758;SDS011;10539;53.686;9.158;2022-09-16T10:46:55;6.97;;;0.97;;
20758;SDS011;10539;53.686;9.158;2022-09-16T10:49:27;10.87;;;0.80;;
20758;SDS011;10539;53.686;9.158;2022-09-16T10:52:08;7.97;;;1.90;;
20758;SDS011;10539;53.686;9.158;2022-09-16T10:54:39;6.07;;;1.20;;
20758;SDS011;10539;53.686;9.158;2022-09-16T10:57:18;6.37;;;0.80;;
20758;SDS011;10539;53.686;9.158;2022-09-16T10:59:57;6.83;;;0.83;;
20758;SDS011;10539;53.686;9.158;2022-09-16T11:07:58;6.53;;;1.10;;
20758;SDS011;10539;53.686;9.158;2022-09-16T11:10:41;9.17;;;1.60;;
20758;SDS011;10539;53.686;9.158;2022-09-16T11:13:20;4.80;;;0.70;;
20758;SDS011;10539;53.686;9.158;2022-09-16T11:19:04;9.03;;;1.23;;
20758;SDS011;10539;53.686;9.158;2022-09-16T11:27:22;6.77;;;1.17;;
20758;SDS011;10539;53.686;9.158;2022-09-16T11:35:26;5.83;;;0.87;;
20758;SDS011;10539;53.686;9.158;2022-09-16T11:40:43;3.47;;;0.43;;
20758;SDS011;10539;53.686;9.158;2022-09-16T11:43:37;5.20;;;0.47;;
20758;SDS011;10539;53.686;9.158;2022-09-16T11:51:52;6.43;;;1.00;;
20758;SDS011;10539;53.686;9.158;2022-09-16T11:57:10;2.47;;;0.50;;
20758;SDS011;10539;53.686;9.158;2022-09-16T11:59:44;4.97;;;0.87;;
20758;SDS011;10539;53.686;9.158;2022-09-16T12:04:59;4.67;;;0.80;;
20758;SDS011;10539;53.686;9.158;2022-09-16T12:07:33;5.03;;;0.93;;
20758;SDS011;10539;53.686;9.158;2022-09-16T12:10:10;5.20;;;0.90;;
20758;SDS011;10539;53.686;9.158;2022-09-16T12:13:03;8.13;;;0.87;;
20758;SDS011;10539;53.686;9.158;2022-09-16T12:16:17;5.83;;;0.60;;
20758;SDS011;10539;53.686;9.158;2022-09-16T12:21:21;10.03;;;0.73;;
20758;SDS011;10539;53.686;9.158;2022-09-16T12:23:48;7.90;;;1.00;;
20758;SDS011;10539;53.686;9.158;2022-09-16T12:26:26;9.00;;;1.17;;
20758;SDS011;10539;53.686;9.158;2022-09-16T12:31:36;7.10;;;1.03;;
20758;SDS011;10539;53.686;9.158;2022-09-16T12:34:11;8.27;;;0.90;;
20758;SDS011;10539;53.686;9.158;2022-09-16T12:36:41;3.77;;;1.20;;
20758;SDS011;10539;53.686;9.158;2022-09-16T12:39:11;7.70;;;0.93;;
20758;SDS011;10539;53.686;9.158;2022-09-16T13:01:05;11.53;;;1.57;;
20758;SDS011;10539;53.686;9.158;2022-09-16T13:03:55;16.13;;;1.67;;
20758;SDS011;10539;53.686;9.158;2022-09-16T13:06:26;10.83;;;1.33;;
20758;SDS011;10539;53.686;9.158;2022-09-16T13:08:55;13.37;;;1.40;;
20758;SDS011;10539;53.686;9.158;2022-09-16T13:11:23;11.00;;;1.40;;
20758;SDS011;10539;53.686;9.158;2022-09-16T13:13:52;11.07;;;1.43;;
20758;SDS011;10539;53.686;9.158;2022-09-16T13:16:26;10.27;;;1.40;;
20758;SDS011;10539;53.686;9.158;2022-09-16T13:21:43;9.90;;;1.00;;
20758;SDS011;10539;53.686;9.158;2022-09-16T13:30:26;7.07;;;1.10;;
20758;SDS011;10539;53.686;9.158;2022-09-16T13:38:09;12.00;;;1.13;;
20758;SDS011;10539;53.686;9.158;2022-09-16T13:40:59;6.40;;;0.83;;
20758;SDS011;10539;53.686;9.158;2022-09-16T13:46:13;2.53;;;0.63;;
20758;SDS011;10539;53.686;9.158;2022-09-16T13:51:38;4.30;;;0.97;;
20758;SDS011;10539;53.686;9.158;2022-09-16T13:57:22;7.63;;;1.17;;
20758;SDS011;10539;53.686;9.158;2022-09-16T14:00:08;14.17;;;1.77;;
20758;SDS011;10539;53.686;9.158;2022-09-16T14:02:46;12.10;;;1.10;;
20758;SDS011;10539;53.686;9.158;2022-09-16T14:05:31;7.50;;;1.53;;
20758;SDS011;10539;53.686;9.158;2022-09-16T14:13:50;13.47;;;1.00;;
20758;SDS011;10539;53.686;9.158;2022-09-16T14:16:22;10.97;;;1.10;;
20758;SDS011;10539;53.686;9.158;2022-09-16T14:21:26;10.80;;;1.30;;
20758;SDS011;10539;53.686;9.158;2022-09-16T14:23:52;7.27;;;1.03;;
20758;SDS011;10539;53.686;9.158;2022-09-16T14:26:19;13.10;;;1.43;;
20758;SDS011;10539;53.686;9.158;2022-09-16T14:28:47;9.13;;;1.30;;
20758;SDS011;10539;53.686;9.158;2022-09-16T14:31:15;9.47;;;1.43;;
20758;SDS011;10539;53.686;9.158;2022-09-16T14:33:48;7.03;;;0.80;;
20758;SDS011;10539;53.686;9.158;2022-09-16T14:36:18;6.83;;;0.93;;
20758;SDS011;10539;53.686;9.158;2022-09-16T14:38:54;13.60;;;2.00;;
20758;SDS011;10539;53.686;9.158;2022-09-16T14:41:25;20.83;;;1.90;;
20758;SDS011;10539;53.686;9.158;2022-09-16T14:44:00;23.97;;;2.20;;
20758;SDS011;10539;53.686;9.158;2022-09-16T14:46:48;23.40;;;2.23;;
20758;SDS011;10539;53.686;9.158;2022-09-16T14:49:20;25.40;;;2.00;;
20758;SDS011;10539;53.686;9.158;2022-09-16T14:51:48;20.70;;;2.43;;
20758;SDS011;10539;53.686;9.158;2022-09-16T14:54:22;20.60;;;2.27;;
20758;SDS011;10539;53.686;9.158;2022-09-16T14:59:30;17.57;;;1.83;;
20758;SDS011;10539;53.686;9.158;2022-09-16T15:04:46;15.03;;;2.00;;
20758;SDS011;10539;53.686;9.158;2022-09-16T15:07:23;19.70;;;1.97;;
20758;SDS011;10539;53.686;9.158;2022-09-16T15:10:08;20.70;;;2.40;;
20758;SDS011;10539;53.686;9.158;2022-09-16T15:12:45;19.67;;;2.20;;
20758;SDS011;10539;53.686;9.158;2022-09-16T15:15:33;7.47;;;1.63;;
20758;SDS011;10539;53.686;9.158;2022-09-16T15:18:11;19.67;;;2.13;;
20758;SDS011;10539;53.686;9.158;2022-09-16T15:21:09;21.97;;;2.83;;
20758;SDS011;10539;53.686;9.158;2022-09-16T15:23:35;19.83;;;1.90;;
20758;SDS011;10539;53.686;9.158;2022-09-16T15:28:37;21.97;;;1.83;;
20758;SDS011;10539;53.686;9.158;2022-09-16T15:33:55;30.77;;;2.30;;
20758;SDS011;10539;53.686;9.158;2022-09-16T15:36:33;19.83;;;2.70;;
20758;SDS011;10539;53.686;9.158;2022-09-16T15:39:01;20.33;;;2.37;;
20758;SDS011;10539;53.686;9.158;2022-09-16T15:41:27;28.67;;;2.60;;
20758;SDS011;10539;53.686;9.158;2022-09-16T15:43:52;24.63;;;2.20;;
20758;SDS011;10539;53.686;9.158;2022-09-16T15:46:19;21.60;;;2.47;;
20758;SDS011;10539;53.686;9.158;2022-09-16T15:48:54;27.10;;;2.43;;
20758;SDS011;10539;53.686;9.158;2022-09-16T15:51:43;22.60;;;2.03;;
20758;SDS011;10539;53.686;9.158;2022-09-16T15:54:21;16.67;;;2.40;;
20758;SDS011;10539;53.686;9.158;2022-09-16T15:57:07;19.10;;;2.33;;
20758;SDS011;10539;53.686;9.158;2022-09-16T15:59:45;26.87;;;3.07;;
20758;SDS011;10539;53.686;9.158;2022-09-16T16:07:58;20.43;;;2.13;;
20758;SDS011;10539;53.686;9.158;2022-09-16T16:10:26;19.80;;;1.90;;
20758;SDS011;10539;53.686;9.158;2022-09-16T16:12:56;14.63;;;2.00;;
20758;SDS011;10539;53.686;9.158;2022-09-16T16:15:29;18.17;;;3.07;;
20758;SDS011;10539;53.686;9.158;2022-09-16T16:18:02;12.17;;;1.87;;
20758;SDS011;10539;53.686;9.158;2022-09-16T16:20:32;15.93;;;2.00;;
20758;SDS011;10539;53.686;9.158;2022-09-16T16:23:00;13.53;;;1.90;;
20758;SDS011;10539;53.686;9.158;2022-09-16T16:25:26;19.47;;;3.10;;
20758;SDS011;10539;53.686;9.158;2022-09-16T16:27:52;18.43;;;2.37;;
20758;SDS011;10539;53.686;9.158;2022-09-16T16:30:18;17.37;;;2.20;;
20758;SDS011;10539;53.686;9.158;2022-09-16T16:32:45;25.13;;;2.90;;
20758;SDS011;10539;53.686;9.158;2022-09-16T16:35:11;15.60;;;2.07;;
20758;SDS011;10539;53.686;9.158;2022-09-16T16:37:37;22.67;;;2.13;;
20758;SDS011;10539;53.686;9.158;2022-09-16T16:40:03;18.93;;;1.73;;
20758;SDS011;10539;53.686;9.158;2022-09-16T16:42:30;15.20;;;2.00;;
20758;SDS011;10539;53.686;9.158;2022-09-16T16:44:56;28.50;;;2.93;;
20758;SDS011;10539;53.686;9.158;2022-09-16T16:47:21;17.00;;;2.17;;
20758;SDS011;10539;53.686;9.158;2022-09-16T16:49:48;21.60;;;2.40;;
20758;SDS011;10539;53.686;9.158;2022-09-16T16:52:14;15.70;;;1.90;;
20758;SDS011;10539;53.686;9.158;2022-09-16T16:54:40;20.13;;;1.70;;
20758;SDS011;10539;53.686;9.158;2022-09-16T16:57:07;23.30;;;2.50;;
20758;SDS011;10539;53.686;9.158;2022-09-16T16:59:33;26.73;;;3.10;;
20758;SDS011;10539;53.686;9.158;2022-09-16T17:01:59;23.50;;;2.40;;
20758;SDS011;10539;53.686;9.158;2022-09-16T17:04:25;20.47;;;2.37;;
20758;SDS011;10539;53.686;9.158;2022-09-16T17:06:51;17.80;;;2.23;;
20758;SDS011;10539;53.686;9.158;2022-09-16T17:09:17;32.43;;;3.00;;
20758;SDS011;10539;53.686;9.158;2022-09-16T17:11:50;21.77;;;2.33;;
20758;SDS011;10539;53.686;9.158;2022-09-16T17:14:17;19.77;;;2.10;;
20758;SDS011;10539;53.686;9.158;2022-09-16T17:16:44;23.97;;;2.50;;
20758;SDS011;10539;53.686;9.158;2022-09-16T17:19:11;21.70;;;2.70;;
20758;SDS011;10539;53.686;9.158;2022-09-16T17:21:38;20.93;;;2.80;;
20758;SDS011;10539;53.686;9.158;2022-09-16T17:24:05;21.37;;;2.10;;
20758;SDS011;10539;53.686;9.158;2022-09-16T17:26:31;21.93;;;2.30;;
20758;SDS011;10539;53.686;9.158;2022-09-16T17:28:57;18.07;;;2.40;;
20758;SDS011;10539;53.686;9.158;2022-09-16T17:31:27;23.20;;;3.20;;
20758;SDS011;10539;53.686;9.158;2022-09-16T17:33:56;16.03;;;2.27;;
20758;SDS011;10539;53.686;9.158;2022-09-16T17:36:30;13.60;;;2.20;;
20758;SDS011;10539;53.686;9.158;2022-09-16T17:39:00;20.83;;;2.47;;
20758;SDS011;10539;53.686;9.158;2022-09-16T17:41:29;16.40;;;2.03;;
20758;SDS011;10539;53.686;9.158;2022-09-16T17:43:55;20.43;;;2.37;;
20758;SDS011;10539;53.686;9.158;2022-09-16T17:46:22;21.50;;;2.17;;
20758;SDS011;10539;53.686;9.158;2022-09-16T17:48:51;28.57;;;2.43;;
20758;SDS011;10539;53.686;9.158;2022-09-16T17:51:28;20.07;;;2.37;;
20758;SDS011;10539;53.686;9.158;2022-09-16T17:53:55;12.47;;;1.70;;
20758;SDS011;10539;53.686;9.158;2022-09-16T17:56:21;23.93;;;2.50;;
20758;SDS011;10539;53.686;9.158;2022-09-16T17:58:47;18.93;;;2.23;;
20758;SDS011;10539;53.686;9.158;2022-09-16T18:01:19;19.77;;;2.40;;
20758;SDS011;10539;53.686;9.158;2022-09-16T18:03:47;22.77;;;2.50;;
20758;SDS011;10539;53.686;9.158;2022-09-16T18:06:30;18.03;;;2.30;;
20758;SDS011;10539;53.686;9.158;2022-09-16T18:09:00;21.50;;;2.37;;
20758;SDS011;10539;53.686;9.158;2022-09-16T18:11:27;20.20;;;2.37;;
20758;SDS011;10539;53.686;9.158;2022-09-16T18:13:54;25.03;;;2.67;;
20758;SDS011;10539;53.686;9.158;2022-09-16T18:16:25;19.40;;;2.43;;
20758;SDS011;10539;53.686;9.158;2022-09-16T18:18:54;17.33;;;2.47;;
20758;SDS011;10539;53.686;9.158;2022-09-16T18:21:21;18.20;;;2.07;;
20758;SDS011;10539;53.686;9.158;2022-09-16T18:23:51;22.33;;;2.13;;
20758;SDS011;10539;53.686;9.158;2022-09-16T18:26:18;26.10;;;2.50;;